SCCI/PUQ METAR and TAF weather

Enter ICAO airport designator
Station Type Date Time Source
SCCI METAR 2021/09/25 12:00 UTC NOAA

SCCI 251200Z 27006KT 9999 FEW040 BKN150 03/01 Q1001 NOSIG


Station Type Date Time Source
SCCI Decoded METAR 2021/09/25 12:00 UTC NOAA

Punta Arenas, Chile (SCCI) 53-00S 070-51W 33M
Sep 25, 2021 - 08:00 AM EDT / 2021.09.25 1200 UTC
Wind: from the W (270 degrees) at 7 MPH (6 KT):0
Visibility: greater than 7 mile(s):0
Sky conditions: mostly cloudy
Temperature: 37 F (3 C)
Dew Point: 33 F (1 C)
Relative Humidity: 86%
Pressure (altimeter): 29.56 in. Hg (1001 hPa)
ob: SCCI 251200Z 27006KT 9999 FEW040 BKN150 03/01 Q1001 NOSIG
cycle: 12

Station Type Date Time Source
SCCI TAF 2021/09/25 12:03 UTC NOAA

TAF SCCI 251012Z 2512/2612 25015KT 9999 FEW045 TN00/2610Z TX08/2518Z PROB30
TEMPO 2518/2601 9000 -SHRA BKN025
BECMG 2610/2612 SCT025

Example: see airport list